41.8°F
Current conditions from King Hill
Updated every 5 minutes
 
  Saturday October 25, 2014

Station Historical Data
Daily Summary for May 29, 2012 Units:  English    Metric   Both
« Previous Day
Next Day »
Daily Weekly Monthly Yearly Custom
  High: Low: Average:
Temperature: 86.4 °F 62.6 °F 69.1 °F
Dew Point: 73.5 °F 58.2 °F 64.7 °F
Humidity: 96% 63% 87%
Wind Speed: 13.0mph 0.0mph 2.7mph
Wind Gust: 40.0mph - -
Wind- - SSW
Pressure: 29.77 in 29.56 in -
Precipitation: 2.33 in    
Historical Graphs
 
 
Tabular Data for May 29, 2012
Time Temperature Dew Point Pressure Wind Wind Speed Wind Gust Humidity Daily Rainfall
00:00 62.7 °F 58.5 °F 29.77 in Calm     86% 0.01 in
00:05 62.7 °F 58.5 °F 29.77 in Calm     86% 0.00 in
00:10 62.7 °F 58.8 °F 29.76 in Calm     87% 0.00 in
00:15 62.7 °F 58.8 °F 29.76 in Calm     87% 0.00 in
00:20 62.7 °F 58.8 °F 29.76 in Calm     87% 0.00 in
00:25 62.7 °F 58.5 °F 29.75 in Calm     86% 0.00 in
00:30 62.8 °F 58.6 °F 29.75 in Calm     86% 0.00 in
00:35 62.8 °F 58.9 °F 29.75 in Calm     87% 0.00 in
00:40 62.7 °F 58.8 °F 29.75 in Calm     87% 0.00 in
00:45 62.7 °F 58.8 °F 29.75 in Calm     87% 0.00 in
00:50 62.6 °F 58.7 °F 29.75 in Calm     87% 0.00 in
01:00 62.6 °F 59.0 °F 29.74 in Calm     88% 0.00 in
01:05 62.6 °F 59.0 °F 29.74 in Calm     88% 0.00 in
01:10 62.6 °F 59.0 °F 29.74 in Calm   1.0 mph 88% 0.00 in
01:15 62.6 °F 59.0 °F 29.74 in Calm   1.0 mph 88% 0.00 in
01:20 62.6 °F 59.0 °F 29.74 in Calm     88% 0.00 in
01:25 62.7 °F 59.1 °F 29.74 in Calm   1.0 mph 88% 0.00 in
01:30 62.7 °F 58.8 °F 29.74 in Calm   1.0 mph 87% 0.00 in
01:35 62.8 °F 58.9 °F 29.74 in Calm   3.0 mph 87% 0.00 in
01:40 62.9 °F 59.0 °F 29.73 in Calm   3.0 mph 87% 0.00 in
01:45 63.2 °F 58.6 °F 29.73 in Calm   3.0 mph 85% 0.00 in
01:50 63.5 °F 58.6 °F 29.73 in Calm   3.0 mph 84% 0.00 in
01:55 63.9 °F 58.6 °F 29.72 in Calm   7.0 mph 83% 0.00 in
02:00 64.2 °F 58.6 °F 29.72 in Calm   7.0 mph 82% 0.00 in
02:05 64.2 °F 58.6 °F 29.71 in SSW 1.0 mph 5.0 mph 82% 0.00 in
02:10 64.2 °F 58.6 °F 29.71 in SSW 2.0 mph 7.0 mph 82% 0.00 in
02:15 64.1 °F 58.5 °F 29.71 in SSW 1.0 mph 7.0 mph 82% 0.00 in
02:20 64.0 °F 58.4 °F 29.71 in Calm   5.0 mph 82% 0.00 in
02:25 63.8 °F 58.2 °F 29.71 in Calm   5.0 mph 82% 0.00 in
02:30 63.7 °F 58.4 °F 29.71 in SSW 1.0 mph 5.0 mph 83% 0.00 in
02:35 63.7 °F 58.4 °F 29.71 in Calm   4.0 mph 83% 0.00 in
02:40 63.7 °F 58.8 °F 29.71 in Calm   4.0 mph 84% 0.00 in
02:45 63.7 °F 58.8 °F 29.71 in Calm   4.0 mph 84% 0.00 in
02:50 63.8 °F 59.2 °F 29.71 in Calm   4.0 mph 85% 0.00 in
02:55 64.0 °F 59.4 °F 29.72 in Calm   4.0 mph 85% 0.00 in
03:00 64.1 °F 59.5 °F 29.72 in Calm   4.0 mph 85% 0.00 in
03:05 64.2 °F 59.6 °F 29.72 in Calm   4.0 mph 85% 0.00 in
03:10 64.1 °F 59.8 °F 29.71 in SSW 1.0 mph 3.0 mph 86% 0.00 in
03:15 64.3 °F 60.0 °F 29.71 in SSW 1.0 mph 5.0 mph 86% 0.00 in
03:20 64.5 °F 60.5 °F 29.70 in Calm   5.0 mph 87% 0.00 in
03:25 64.8 °F 60.8 °F 29.70 in Calm   5.0 mph 87% 0.00 in
03:30 65.2 °F 61.6 °F 29.70 in SW 1.0 mph 7.0 mph 88% 0.00 in
03:35 65.9 °F 62.6 °F 29.70 in SW 1.0 mph 7.0 mph 89% 0.00 in
03:40 66.2 °F 62.9 °F 29.69 in SSW 2.0 mph 6.0 mph 89% 0.00 in
03:50 67.0 °F 63.7 °F 29.69 in SW 1.0 mph 6.0 mph 89% 0.00 in
03:55 67.1 °F 63.4 °F 29.68 in Calm   6.0 mph 88% 0.00 in
04:00 67.1 °F 63.4 °F 29.68 in SW 1.0 mph 5.0 mph 88% 0.00 in
04:05 67.6 °F 64.2 °F 29.68 in Calm   8.0 mph 89% 0.00 in
04:10 67.6 °F 63.9 °F 29.68 in Calm   8.0 mph 88% 0.00 in
04:15 67.6 °F 63.9 °F 29.68 in Calm   5.0 mph 88% 0.00 in
04:20 67.5 °F 63.8 °F 29.68 in Calm   2.0 mph 88% 0.00 in
04:25 67.5 °F 64.1 °F 29.67 in Calm   5.0 mph 89% 0.00 in
04:30 67.6 °F 64.2 °F 29.67 in Calm   5.0 mph 89% 0.00 in
04:40 68.0 °F 64.6 °F 29.67 in Calm   7.0 mph 89% 0.00 in
04:45 68.1 °F 64.7 °F 29.67 in SSW 2.0 mph 9.0 mph 89% 0.00 in
04:55 68.1 °F 64.7 °F 29.67 in SSW 2.0 mph 6.0 mph 89% 0.00 in
05:00 68.0 °F 64.6 °F 29.66 in SSW 1.0 mph 7.0 mph 89% 0.00 in
05:05 67.9 °F 64.5 °F 29.67 in South 1.0 mph 7.0 mph 89% 0.00 in
05:10 67.7 °F 64.3 °F 29.67 in SSW 3.0 mph 7.0 mph 89% 0.00 in
05:15 67.4 °F 64.0 °F 29.68 in SSW 1.0 mph 8.0 mph 89% 0.00 in
05:20 67.2 °F 63.9 °F 29.70 in SW 5.0 mph 14.0 mph 89% 0.00 in
05:25 67.2 °F 63.9 °F 29.71 in Calm   14.0 mph 89% 0.00 in
05:30 67.3 °F 63.9 °F 29.71 in Calm   6.0 mph 89% 0.00 in
05:35 66.4 °F 62.1 °F 29.72 in NW 5.0 mph 11.0 mph 86% 0.00 in
05:45 64.8 °F 61.5 °F 29.71 in WSW 2.0 mph 10.0 mph 89% 0.07 in
05:50 65.0 °F 62.0 °F 29.71 in Calm   6.0 mph 90% 0.08 in
06:00 65.3 °F 62.6 °F 29.69 in SSW 2.0 mph 8.0 mph 91% 0.08 in
06:05 65.5 °F 63.1 °F 29.70 in South 1.0 mph 8.0 mph 92% 0.08 in
06:10 65.7 °F 63.6 °F 29.70 in SSW 1.0 mph 6.0 mph 93% 0.08 in
06:15 65.8 °F 63.7 °F 29.69 in Calm   5.0 mph 93% 0.08 in
06:20 65.9 °F 63.8 °F 29.68 in SW 1.0 mph 8.0 mph 93% 0.08 in
06:25 65.9 °F 63.8 °F 29.68 in SSW 1.0 mph 8.0 mph 93% 0.08 in
06:30 66.0 °F 64.2 °F 29.67 in Calm   6.0 mph 94% 0.08 in
06:35 66.1 °F 64.3 °F 29.67 in SSW 3.0 mph 8.0 mph 94% 0.08 in
06:40 66.2 °F 64.4 °F 29.68 in SSW 1.0 mph 8.0 mph 94% 0.08 in
06:50 66.2 °F 64.4 °F 29.67 in Calm   5.0 mph 94% 0.08 in
06:55 66.3 °F 64.5 °F 29.67 in SW 1.0 mph 6.0 mph 94% 0.08 in
07:00 66.4 °F 64.6 °F 29.67 in SW 3.0 mph 7.0 mph 94% 0.08 in
07:05 66.6 °F 65.1 °F 29.67 in Calm   7.0 mph 95% 0.08 in
07:10 66.8 °F 65.3 °F 29.67 in Calm   7.0 mph 95% 0.08 in
07:15 67.0 °F 65.5 °F 29.66 in SW 1.0 mph 7.0 mph 95% 0.08 in
07:20 67.3 °F 65.8 °F 29.67 in Calm   6.0 mph 95% 0.08 in
07:25 67.6 °F 66.1 °F 29.68 in Calm   5.0 mph 95% 0.08 in
07:30 67.6 °F 66.4 °F 29.66 in SSW 3.0 mph 7.0 mph 96% 0.13 in
07:35 67.8 °F 66.6 °F 29.66 in SSW 1.0 mph 7.0 mph 96% 0.13 in
07:40 68.0 °F 66.8 °F 29.67 in SSW 1.0 mph 8.0 mph 96% 0.13 in
07:45 68.3 °F 67.1 °F 29.68 in SW 2.0 mph 9.0 mph 96% 0.13 in
07:50 68.7 °F 67.5 °F 29.68 in SSW 2.0 mph 11.0 mph 96% 0.13 in
07:55 68.9 °F 67.7 °F 29.67 in SSW 5.0 mph 13.0 mph 96% 0.13 in
07:59 69.0 °F 67.5 °F 29.68 in Calm   13.0 mph 95% 0.13 in
08:05 69.1 °F 67.6 °F 29.68 in SW 6.0 mph 17.0 mph 95% 0.13 in
08:10 69.2 °F 67.7 °F 29.68 in SSW 2.0 mph 17.0 mph 95% 0.13 in
08:15 69.1 °F 67.6 °F 29.67 in SW 3.0 mph 13.0 mph 95% 0.14 in
08:20 69.0 °F 67.5 °F 29.67 in SW 3.0 mph 12.0 mph 95% 0.14 in
08:25 68.8 °F 67.3 °F 29.67 in SW 3.0 mph 12.0 mph 95% 0.14 in
08:30 68.8 °F 67.3 °F 29.68 in SW 1.0 mph 10.0 mph 95% 0.14 in
08:35 68.7 °F 66.9 °F 29.68 in SW 4.0 mph 10.0 mph 94% 0.14 in
08:40 68.6 °F 66.8 °F 29.68 in SW 3.0 mph 10.0 mph 94% 0.14 in
08:45 68.6 °F 66.8 °F 29.69 in Calm   8.0 mph 94% 0.14 in
08:50 68.7 °F 66.9 °F 29.69 in SW 2.0 mph 7.0 mph 94% 0.14 in
08:55 68.8 °F 67.3 °F 29.69 in Calm   8.0 mph 95% 0.14 in
09:05 68.6 °F 66.8 °F 29.69 in SSW 1.0 mph 7.0 mph 94% 0.14 in
09:10 68.7 °F 67.2 °F 29.69 in SSW 2.0 mph 9.0 mph 95% 0.14 in
09:15 68.8 °F 67.3 °F 29.70 in SW 1.0 mph 9.0 mph 95% 0.14 in
09:20 69.1 °F 67.6 °F 29.69 in Calm   9.0 mph 95% 0.14 in
09:25 69.3 °F 67.8 °F 29.69 in SW 3.0 mph 11.0 mph 95% 0.14 in
09:30 69.5 °F 68.0 °F 29.69 in Calm   11.0 mph 95% 0.14 in
09:40 69.7 °F 68.2 °F 29.68 in Calm   8.0 mph 95% 0.14 in
09:45 70.3 °F 68.8 °F 29.68 in South 1.0 mph 7.0 mph 95% 0.14 in
09:50 70.8 °F 69.3 °F 29.67 in Calm   7.0 mph 95% 0.14 in
09:55 71.5 °F 70.0 °F 29.67 in SSW 3.0 mph 8.0 mph 95% 0.14 in
10:00 71.9 °F 69.8 °F 29.66 in SSW 3.0 mph 9.0 mph 93% 0.14 in
10:05 72.4 °F 69.9 °F 29.66 in SW 2.0 mph 9.0 mph 92% 0.14 in
10:10 73.3 °F 70.5 °F 29.66 in Calm   8.0 mph 91% 0.14 in
10:15 73.9 °F 70.8 °F 29.67 in SW 1.0 mph 6.0 mph 90% 0.14 in
10:20 74.2 °F 70.4 °F 29.67 in SW 1.0 mph 7.0 mph 88% 0.14 in
10:25 74.9 °F 70.4 °F 29.66 in SW 3.0 mph 11.0 mph 86% 0.14 in
10:35 75.6 °F 70.4 °F 29.66 in SW 4.0 mph 12.0 mph 84% 0.14 in
10:40 76.2 °F 71.0 °F 29.67 in SSW 2.0 mph 12.0 mph 84% 0.14 in
10:45 76.5 °F 70.2 °F 29.67 in SSW 3.0 mph 11.0 mph 81% 0.14 in
10:50 76.4 °F 69.8 °F 29.67 in SSW 4.0 mph 11.0 mph 80% 0.14 in
10:54 76.2 °F 69.2 °F 29.67 in SSW 2.0 mph 12.0 mph 79% 0.14 in
10:59 76.6 °F 69.6 °F 29.67 in South 1.0 mph 12.0 mph 79% 0.14 in
11:05 77.1 °F 69.7 °F 29.67 in SSE 1.0 mph 10.0 mph 78% 0.14 in
11:09 77.5 °F 70.5 °F 29.67 in Calm   8.0 mph 79% 0.14 in
11:15 77.8 °F 70.0 °F 29.67 in South 2.0 mph 9.0 mph 77% 0.14 in
11:20 77.9 °F 69.7 °F 29.67 in SW 1.0 mph 9.0 mph 76% 0.14 in
11:25 78.1 °F 70.3 °F 29.67 in South 2.0 mph 12.0 mph 77% 0.14 in
11:30 78.2 °F 69.2 °F 29.67 in SSW 3.0 mph 12.0 mph 74% 0.14 in
11:35 78.3 °F 70.1 °F 29.66 in SW 1.0 mph 12.0 mph 76% 0.14 in
11:44 78.7 °F 69.7 °F 29.66 in SSW 3.0 mph 10.0 mph 74% 0.14 in
11:50 79.4 °F 71.9 °F 29.66 in Calm   10.0 mph 78% 0.14 in
11:55 80.2 °F 72.0 °F 29.65 in SW 2.0 mph 10.0 mph 76% 0.14 in
12:00 80.5 °F 71.1 °F 29.66 in SW 5.0 mph 13.0 mph 73% 0.14 in
12:05 80.6 °F 71.6 °F 29.66 in South 4.0 mph 13.0 mph 74% 0.14 in
12:10 81.1 °F 71.6 °F 29.66 in SSW 3.0 mph 13.0 mph 73% 0.14 in
12:15 81.2 °F 70.9 °F 29.66 in SW 6.0 mph 14.0 mph 71% 0.14 in
12:20 80.7 °F 70.8 °F 29.65 in SSW 3.0 mph 14.0 mph 72% 0.14 in
12:25 80.8 °F 72.5 °F 29.65 in SSW 2.0 mph 11.0 mph 76% 0.14 in
12:30 81.0 °F 71.9 °F 29.65 in SW 1.0 mph 11.0 mph 74% 0.14 in
12:40 81.8 °F 71.5 °F 29.65 in SW 5.0 mph 13.0 mph 71% 0.14 in
12:45 82.3 °F 71.1 °F 29.65 in SW 7.0 mph 15.0 mph 69% 0.14 in
12:49 82.5 °F 71.7 °F 29.64 in SW 5.0 mph 15.0 mph 70% 0.14 in
12:55 82.8 °F 72.4 °F 29.64 in SW 5.0 mph 15.0 mph 71% 0.14 in
13:00 83.0 °F 72.2 °F 29.64 in SW 3.0 mph 18.0 mph 70% 0.14 in
13:05 83.1 °F 71.9 °F 29.64 in SW 4.0 mph 18.0 mph 69% 0.14 in
13:10 83.5 °F 72.7 °F 29.63 in SW 3.0 mph 13.0 mph 70% 0.14 in
13:14 83.6 °F 72.4 °F 29.62 in SW 6.0 mph 13.0 mph 69% 0.14 in
13:20 83.4 °F 71.7 °F 29.61 in SW 5.0 mph 13.0 mph 68% 0.14 in
13:25 83.5 °F 72.3 °F 29.61 in SW 3.0 mph 13.0 mph 69% 0.14 in
13:35 84.2 °F 72.9 °F 29.60 in SW 5.0 mph 13.0 mph 69% 0.14 in
13:45 84.8 °F 72.6 °F 29.59 in SSW 3.0 mph 13.0 mph 67% 0.14 in
13:49 84.8 °F 73.5 °F 29.59 in West 1.0 mph 13.0 mph 69% 0.14 in
13:55 85.1 °F 72.9 °F 29.58 in SSW 5.0 mph 10.0 mph 67% 0.14 in
14:00 85.4 °F 73.2 °F 29.58 in SW 1.0 mph 10.0 mph 67% 0.14 in
14:05 86.0 °F 72.9 °F 29.58 in SW 2.0 mph 10.0 mph 65% 0.14 in
14:10 86.2 °F 72.1 °F 29.57 in SW 4.0 mph 11.0 mph 63% 0.14 in
14:15 86.4 °F 73.3 °F 29.56 in SSW 3.0 mph 11.0 mph 65% 0.14 in
14:20 86.1 °F 72.0 °F 29.57 in SW 7.0 mph 14.0 mph 63% 0.14 in
14:30 85.5 °F 73.3 °F 29.57 in South 1.0 mph 11.0 mph 67% 0.14 in
14:39 83.3 °F 71.2 °F 29.58 in SSW 2.0 mph 10.0 mph 67% 0.14 in
14:45 82.4 °F 71.2 °F 29.58 in South 1.0 mph 9.0 mph 69% 0.14 in
14:50 82.0 °F 71.3 °F 29.57 in Calm   9.0 mph 70% 0.14 in
14:54 81.7 °F 71.0 °F 29.57 in SSW 1.0 mph 7.0 mph 70% 0.14 in
14:59 81.0 °F 70.3 °F 29.57 in SW 1.0 mph 8.0 mph 70% 0.14 in
15:05 80.3 °F 70.9 °F 29.57 in SSW 3.0 mph 11.0 mph 73% 0.15 in
15:10 78.4 °F 69.4 °F 29.56 in SSW 1.0 mph 14.0 mph 74% 0.15 in
15:15 77.4 °F 69.6 °F 29.57 in Calm   14.0 mph 77% 0.15 in
15:19 76.7 °F 70.1 °F 29.58 in Calm     80% 0.15 in
15:25 75.7 °F 69.5 °F 29.57 in Calm   1.0 mph 81% 0.16 in
15:30 74.9 °F 69.7 °F 29.61 in WNW 1.0 mph 7.0 mph 84% 0.21 in
15:35 71.5 °F 64.7 °F 29.64 in NW 9.0 mph 27.0 mph 79% 0.56 in
15:40 68.9 °F 64.2 °F 29.65 in NW 8.0 mph 27.0 mph 85% 1.02 in
15:50 66.6 °F 63.3 °F 29.64 in SW 6.0 mph 18.0 mph 89% 1.49 in
15:54 67.0 °F 64.0 °F 29.64 in SSW 10.0 mph 20.0 mph 90% 1.60 in
15:59 67.1 °F 64.1 °F 29.64 in SSW 13.0 mph 40.0 mph 90% 2.03 in
16:05 65.9 °F 62.9 °F 29.61 in SSW 8.0 mph 40.0 mph 90% 2.19 in
16:10 65.0 °F 61.7 °F 29.58 in South 3.0 mph 23.0 mph 89% 2.26 in
16:14 64.3 °F 61.0 °F 29.58 in South 6.0 mph 14.0 mph 89% 2.28 in
16:19 63.8 °F 60.5 °F 29.59 in South 2.0 mph 12.0 mph 89% 2.28 in
16:25 63.4 °F 60.1 °F 29.58 in South 2.0 mph 10.0 mph 89% 2.28 in
16:34 63.4 °F 60.4 °F 29.58 in SSW 1.0 mph 9.0 mph 90% 2.28 in
16:40 63.7 °F 60.7 °F 29.58 in SSW 4.0 mph 11.0 mph 90% 2.28 in
16:44 64.3 °F 61.6 °F 29.57 in SSW 2.0 mph 11.0 mph 91% 2.28 in
16:49 65.0 °F 62.3 °F 29.57 in South 2.0 mph 11.0 mph 91% 2.28 in
16:55 65.5 °F 62.8 °F 29.56 in South 2.0 mph 12.0 mph 91% 2.28 in
16:59 65.9 °F 63.2 °F 29.56 in South 1.0 mph 12.0 mph 91% 2.28 in
17:05 66.5 °F 63.5 °F 29.56 in SSE 3.0 mph 11.0 mph 90% 2.28 in
17:09 67.0 °F 63.7 °F 29.57 in WSW 1.0 mph 12.0 mph 89% 2.28 in
17:15 67.0 °F 63.7 °F 29.57 in SW 1.0 mph 12.0 mph 89% 2.28 in
17:20 67.0 °F 63.7 °F 29.57 in Calm   6.0 mph 89% 2.28 in
17:25 67.2 °F 64.2 °F 29.57 in SW 2.0 mph 7.0 mph 90% 2.28 in
17:30 67.5 °F 64.1 °F 29.58 in Calm   7.0 mph 89% 2.28 in
17:40 67.7 °F 64.7 °F 29.58 in Calm   6.0 mph 90% 2.28 in
17:45 67.9 °F 64.9 °F 29.58 in SSW 1.0 mph 7.0 mph 90% 2.28 in
17:50 67.9 °F 64.5 °F 29.59 in SSW 2.0 mph 8.0 mph 89% 2.28 in
17:54 68.0 °F 64.6 °F 29.59 in SSW 1.0 mph 8.0 mph 89% 2.28 in
17:59 68.0 °F 64.3 °F 29.58 in SSW 4.0 mph 10.0 mph 88% 2.28 in
18:05 68.1 °F 64.4 °F 29.58 in SSW 2.0 mph 10.0 mph 88% 2.28 in
18:09 68.2 °F 63.9 °F 29.58 in SSW 4.0 mph 15.0 mph 86% 2.28 in
18:14 68.3 °F 64.0 °F 29.59 in SW 2.0 mph 15.0 mph 86% 2.28 in
18:20 68.2 °F 63.9 °F 29.59 in SW 1.0 mph 14.0 mph 86% 2.28 in
18:25 68.1 °F 63.8 °F 29.59 in SSW 2.0 mph 14.0 mph 86% 2.28 in
18:29 68.0 °F 63.7 °F 29.59 in SSW 2.0 mph 11.0 mph 86% 2.28 in
18:35 67.7 °F 63.4 °F 29.59 in SSW 3.0 mph 13.0 mph 86% 2.29 in
18:40 67.5 °F 63.5 °F 29.60 in SSW 1.0 mph 13.0 mph 87% 2.29 in
18:45 67.3 °F 63.6 °F 29.61 in SSW 1.0 mph 11.0 mph 88% 2.29 in
18:50 67.1 °F 63.4 °F 29.61 in Calm   9.0 mph 88% 2.29 in
18:55 67.0 °F 63.3 °F 29.61 in Calm   7.0 mph 88% 2.30 in
18:59 66.8 °F 63.5 °F 29.62 in Calm   7.0 mph 89% 2.31 in
19:05 66.7 °F 63.4 °F 29.61 in Calm   5.0 mph 89% 2.31 in
19:10 66.6 °F 63.3 °F 29.61 in SW 1.0 mph 7.0 mph 89% 2.32 in
19:15 66.4 °F 63.1 °F 29.62 in Calm   7.0 mph 89% 2.32 in
19:20 66.3 °F 63.3 °F 29.62 in Calm   7.0 mph 90% 2.32 in
19:25 66.2 °F 63.2 °F 29.61 in Calm   7.0 mph 90% 2.32 in
19:35 66.0 °F 63.0 °F 29.61 in Calm   5.0 mph 90% 2.33 in
19:40 65.9 °F 62.9 °F 29.61 in SSW 1.0 mph 5.0 mph 90% 2.33 in
19:45 65.9 °F 62.9 °F 29.62 in Calm   5.0 mph 90% 2.33 in
19:50 65.8 °F 63.1 °F 29.61 in Calm   3.0 mph 91% 2.33 in
20:00 65.5 °F 62.8 °F 29.60 in SSW 2.0 mph 6.0 mph 91% 2.33 in
20:09 65.3 °F 62.6 °F 29.60 in Calm   5.0 mph 91% 2.33 in
20:15 65.2 °F 62.5 °F 29.60 in Calm   3.0 mph 91% 2.33 in
20:19 65.0 °F 62.3 °F 29.59 in SSW 1.0 mph 4.0 mph 91% 2.33 in
20:25 64.8 °F 62.1 °F 29.59 in Calm   4.0 mph 91% 2.33 in
20:29 64.7 °F 62.0 °F 29.59 in Calm   3.0 mph 91% 2.33 in
20:35 64.5 °F 61.8 °F 29.59 in Calm   3.0 mph 91% 2.33 in
20:40 64.3 °F 61.6 °F 29.60 in Calm     91% 2.33 in
20:45 64.2 °F 61.5 °F 29.60 in Calm   1.0 mph 91% 2.33 in
20:50 64.2 °F 61.5 °F 29.60 in Calm   1.0 mph 91% 2.33 in
21:00 64.0 °F 61.6 °F 29.60 in WSW 1.0 mph 4.0 mph 92% 2.33 in
21:05 64.0 °F 61.6 °F 29.60 in Calm   6.0 mph 92% 2.33 in
21:10 64.0 °F 61.6 °F 29.60 in Calm   6.0 mph 92% 2.33 in
21:14 64.0 °F 61.6 °F 29.60 in SW 1.0 mph 6.0 mph 92% 2.33 in
21:20 63.9 °F 61.5 °F 29.60 in SSW 2.0 mph 6.0 mph 92% 2.33 in
21:25 63.9 °F 61.5 °F 29.60 in SW 1.0 mph 6.0 mph 92% 2.33 in
21:29 63.9 °F 61.5 °F 29.60 in SSW 1.0 mph 7.0 mph 92% 2.33 in
21:34 63.9 °F 61.5 °F 29.61 in SSW 1.0 mph 7.0 mph 92% 2.33 in
21:40 63.8 °F 61.4 °F 29.61 in Calm   6.0 mph 92% 2.33 in
21:45 63.8 °F 61.4 °F 29.61 in SSW 2.0 mph 9.0 mph 92% 2.33 in
21:50 63.7 °F 61.3 °F 29.61 in Calm   9.0 mph 92% 2.33 in
21:54 63.7 °F 61.3 °F 29.61 in SSW 3.0 mph 6.0 mph 92% 2.33 in
22:00 63.7 °F 61.6 °F 29.61 in Calm   6.0 mph 93% 2.33 in
22:04 63.6 °F 61.5 °F 29.61 in Calm   8.0 mph 93% 2.33 in
22:10 63.6 °F 61.5 °F 29.61 in Calm   8.0 mph 93% 2.33 in
22:15 63.5 °F 61.4 °F 29.61 in SSW 2.0 mph 9.0 mph 93% 2.33 in
22:19 63.5 °F 61.4 °F 29.61 in SW 2.0 mph 9.0 mph 93% 2.33 in
22:25 63.5 °F 61.4 °F 29.61 in SW 1.0 mph 8.0 mph 93% 2.33 in
22:30 63.5 °F 61.4 °F 29.61 in SW 3.0 mph 7.0 mph 93% 2.33 in
22:39 63.6 °F 61.5 °F 29.61 in SSW 2.0 mph 9.0 mph 93% 2.33 in
22:45 63.7 °F 61.6 °F 29.60 in SSW 2.0 mph 8.0 mph 93% 2.33 in
22:55 63.8 °F 61.7 °F 29.60 in SW 5.0 mph 12.0 mph 93% 2.33 in
22:59 63.9 °F 61.8 °F 29.60 in SW 2.0 mph 11.0 mph 93% 2.33 in
23:04 63.9 °F 62.1 °F 29.60 in SW 3.0 mph 14.0 mph 94% 2.33 in
23:10 64.0 °F 62.2 °F 29.60 in SW 4.0 mph 14.0 mph 94% 2.33 in
23:15 64.1 °F 62.3 °F 29.60 in SSW 8.0 mph 15.0 mph 94% 2.33 in
23:20 64.2 °F 62.4 °F 29.60 in SW 4.0 mph 15.0 mph 94% 2.33 in
23:24 64.2 °F 62.4 °F 29.60 in SSW 4.0 mph 13.0 mph 94% 2.33 in
23:29 64.3 °F 62.5 °F 29.60 in SSW 5.0 mph 14.0 mph 94% 2.33 in
23:35 64.3 °F 62.5 °F 29.60 in SW 2.0 mph 14.0 mph 94% 2.33 in
23:45 64.3 °F 62.5 °F 29.59 in SSW 5.0 mph 15.0 mph 94% 2.33 in
23:50 64.3 °F 62.5 °F 29.60 in SSW 3.0 mph 15.0 mph 94% 2.33 in
23:59 64.4 °F 62.6 °F 29.60 in SSW 5.0 mph 16.0 mph 94% 2.33 in
Westford Weather
Compliments of Weather Underground

 
 
Current Radar Loop:

Copyright © WestfordWeather.net 2007-2014. All rights reserved.